createdAt,value
2019-03-16T00:09:35.303Z,21.37
2019-03-16T00:19:37.657Z,23.50
2019-03-16T00:29:39.636Z,22.00
2019-03-16T00:39:41.591Z,14.33
2019-03-16T00:49:43.590Z,11.38
2019-03-16T00:59:45.594Z,14.53
2019-03-16T01:09:47.933Z,13.20
2019-03-16T01:19:50.134Z,12.37
2019-03-16T01:29:52.271Z,17.13
2019-03-16T01:39:54.398Z,11.97
2019-03-16T01:49:56.650Z,19.87
2019-03-16T01:59:59.054Z,14.93
2019-03-16T02:10:01.058Z,13.50
2019-03-16T02:20:03.975Z,14.25
2019-03-16T02:30:07.860Z,11.00
2019-03-16T02:40:09.890Z,14.47
2019-03-16T02:50:12.714Z,10.63
2019-03-16T03:00:14.715Z,14.05
2019-03-16T03:10:18.817Z,18.57
2019-03-16T03:20:21.182Z,17.87
2019-03-16T03:30:23.144Z,12.33
2019-03-16T03:40:25.052Z,12.20
2019-03-16T03:50:27.112Z,11.65
2019-03-16T04:00:29.235Z,13.18
2019-03-16T04:10:31.239Z,12.50
2019-03-16T04:20:34.326Z,11.85
2019-03-16T04:40:37.788Z,10.60
2019-03-16T04:50:40.468Z,10.93
2019-03-16T05:00:42.850Z,8.47
2019-03-16T05:10:45.266Z,10.67
2019-03-16T05:20:48.215Z,7.00
2019-03-16T05:30:51.470Z,10.08
2019-03-16T05:40:53.678Z,13.55
2019-03-16T05:50:57.508Z,6.57
2019-03-16T06:00:59.487Z,12.03
2019-03-16T06:11:02.599Z,9.60
2019-03-16T06:31:06.500Z,8.93
2019-03-16T06:41:08.744Z,6.20
2019-03-16T06:51:11.365Z,7.03
2019-03-16T07:01:13.289Z,7.40
2019-03-16T07:11:16.191Z,4.83
2019-03-16T07:21:18.966Z,3.50
2019-03-16T07:31:20.930Z,2.17
2019-03-16T07:41:22.951Z,4.22
2019-03-16T07:51:24.933Z,1.77
2019-03-16T08:01:26.990Z,1.22
2019-03-16T08:11:29.100Z,2.40
2019-03-16T08:21:31.376Z,5.27
2019-03-16T08:31:33.707Z,1.37
2019-03-16T08:41:37.214Z,2.20
2019-03-16T08:51:40.485Z,3.60
2019-03-16T09:01:42.835Z,3.92
2019-03-16T09:11:45.463Z,4.67
2019-03-16T09:21:48.439Z,6.17
2019-03-16T09:41:54.397Z,4.90
2019-03-16T09:51:56.442Z,4.70
2019-03-16T10:01:58.715Z,3.87
2019-03-16T10:12:00.665Z,1.93
2019-03-16T10:22:02.819Z,3.00
2019-03-16T10:32:05.022Z,3.60
2019-03-16T10:42:07.178Z,4.77
2019-03-16T10:52:09.939Z,4.93
2019-03-16T11:02:13.211Z,12.28
2019-03-16T11:12:15.145Z,16.20
2019-03-16T11:22:18.368Z,14.93
2019-03-16T11:32:20.349Z,6.65
2019-03-16T11:42:22.995Z,7.97
2019-03-16T11:52:26.346Z,7.87
2019-03-16T12:02:28.285Z,3.72
2019-03-16T12:12:30.277Z,4.95
2019-03-16T12:22:32.896Z,2.77
2019-03-16T12:32:34.842Z,7.62
2019-03-16T12:42:38.183Z,4.12
2019-03-16T12:52:40.449Z,2.92
2019-03-16T13:02:42.547Z,2.43
2019-03-16T13:12:44.483Z,1.93
2019-03-16T13:23:05.897Z,2.72
2019-03-16T13:33:08.012Z,2.75
2019-03-16T13:43:10.044Z,3.37
2019-03-16T13:53:12.675Z,4.50
2019-03-16T14:03:14.994Z,3.80
2019-03-16T14:13:17.261Z,4.87
2019-03-16T14:23:19.771Z,15.37
2019-03-16T14:33:21.758Z,11.40
2019-03-16T14:43:23.707Z,13.40
2019-03-16T14:53:26.046Z,2.37
2019-03-16T15:03:28.234Z,6.87
2019-03-16T15:13:31.751Z,9.43
2019-03-16T15:23:36.131Z,6.08
2019-03-16T15:33:38.774Z,2.72
2019-03-16T15:43:41.065Z,4.92
2019-03-16T15:53:43.153Z,6.47
2019-03-16T16:03:45.310Z,3.43
2019-03-16T16:13:49.126Z,6.00
2019-03-16T16:23:51.596Z,4.55
2019-03-16T16:33:53.800Z,3.17
2019-03-16T16:43:56.032Z,2.63
2019-03-16T16:53:59.442Z,3.60
2019-03-16T17:04:01.574Z,2.17
2019-03-16T17:14:03.998Z,6.07
2019-03-16T17:24:07.518Z,2.77
2019-03-16T17:34:10.614Z,4.12
2019-03-16T17:44:12.742Z,3.33
2019-03-16T17:54:14.748Z,5.77
2019-03-16T18:04:16.674Z,3.98
2019-03-16T18:14:19.334Z,3.52
2019-03-16T18:24:21.649Z,5.50
2019-03-16T18:34:23.615Z,12.67
2019-03-16T18:44:25.617Z,16.15
2019-03-16T18:54:27.757Z,20.45
2019-03-16T19:04:30.337Z,9.40
2019-03-16T19:14:32.327Z,18.17
2019-03-16T19:24:34.304Z,10.93
2019-03-16T19:34:36.583Z,12.35
2019-03-16T19:44:38.593Z,7.47
2019-03-16T19:54:40.835Z,14.07
2019-03-16T20:04:42.799Z,10.23
2019-03-16T20:14:44.786Z,20.08
2019-03-16T20:24:47.021Z,9.63
2019-03-16T20:34:49.016Z,6.90
2019-03-16T20:44:51.031Z,11.03
2019-03-16T20:54:53.219Z,19.30
2019-03-16T21:04:55.368Z,6.70
2019-03-16T21:14:58.204Z,8.73
2019-03-16T21:25:00.487Z,6.40
2019-03-16T21:35:02.901Z,6.53
2019-03-16T21:45:06.527Z,6.37
2019-03-16T21:55:10.362Z,10.55
2019-03-16T22:05:12.671Z,36.48
2019-03-16T22:15:15.062Z,27.67
2019-03-16T22:25:17.005Z,3.33
2019-03-16T22:35:19.312Z,7.40
2019-03-16T22:45:21.544Z,5.20
2019-03-16T22:55:23.538Z,3.33
2019-03-16T23:05:26.775Z,3.90
2019-03-16T23:15:28.735Z,3.15
2019-03-16T23:25:30.718Z,6.78
2019-03-16T23:35:33.730Z,2.75
2019-03-16T23:55:37.969Z,7.50
